Time,TemperatureF,DewpointF,PressureIn,WindDirection,WindDirectionDegrees,WindSpeedMPH,WindSpeedGustMPH,Humidity,HourlyPrecipIn,Conditions,Clouds,dailyrainin,SoftwareType,DateUTC
2013-01-29 00:03:00,22.9,20.7,30.05,NE,42,0.0,1.0,91,0.00,,,0.00,Wunderground v.1.15,2013-01-29 05:03:00,
2013-01-29 00:08:00,22.9,20.7,30.06,NE,35,0.0,2.0,91,0.00,,,0.00,Wunderground v.1.15,2013-01-29 05:08:00,
2013-01-29 00:13:00,23.0,20.8,30.06,NE,52,2.0,2.0,91,0.00,,,0.00,Wunderground v.1.15,2013-01-29 05:13:00,
2013-01-29 00:23:00,23.2,21.0,30.06,North,349,1.0,4.0,91,0.00,,,0.00,Wunderground v.1.15,2013-01-29 05:23:00,
2013-01-29 00:33:00,22.8,20.6,30.05,NNW,338,2.0,2.0,91,0.00,,,0.00,Wunderground v.1.15,2013-01-29 05:33:00,
2013-01-29 00:43:00,22.6,20.4,30.06,NNE,12,2.0,2.0,91,0.00,,,0.00,Wunderground v.1.15,2013-01-29 05:43:00,
2013-01-29 00:53:00,22.7,20.5,30.05,NNE,31,3.0,3.0,91,0.00,,,0.00,Wunderground v.1.15,2013-01-29 05:53:00,
2013-01-29 00:59:00,22.6,20.4,30.05,NE,34,2.0,2.0,91,0.00,,,0.00,Wunderground v.1.15,2013-01-29 05:59:00,
2013-01-29 01:08:00,22.5,20.3,30.06,NNE,22,2.0,4.0,91,0.00,,,0.00,Wunderground v.1.15,2013-01-29 06:08:00,
2013-01-29 01:13:00,22.4,20.2,30.06,NNE,30,3.0,4.0,91,0.00,,,0.00,Wunderground v.1.15,2013-01-29 06:13:00,
2013-01-29 01:18:00,22.4,20.2,30.06,NNE,32,4.0,4.0,91,0.00,,,0.00,Wunderground v.1.15,2013-01-29 06:18:00,
2013-01-29 01:28:00,22.3,20.1,30.06,North,10,3.0,3.0,91,0.00,,,0.00,Wunderground v.1.15,2013-01-29 06:28:00,
2013-01-29 01:38:00,22.2,19.7,30.07,North,5,3.0,3.0,90,0.00,,,0.00,Wunderground v.1.15,2013-01-29 06:38:00,
2013-01-29 01:43:00,22.1,19.6,30.07,NE,34,3.0,5.0,90,0.00,,,0.00,Wunderground v.1.15,2013-01-29 06:43:00,
2013-01-29 01:48:00,22.1,19.6,30.07,NNE,28,4.0,4.0,90,0.00,,,0.00,Wunderground v.1.15,2013-01-29 06:48:00,
2013-01-29 01:58:00,22.0,19.5,30.08,North,355,4.0,5.0,90,0.00,,,0.00,Wunderground v.1.15,2013-01-29 06:58:00,
2013-01-29 02:03:00,22.1,19.6,30.07,NE,38,4.0,5.0,90,0.00,,,0.00,Wunderground v.1.15,2013-01-29 07:03:00,
2013-01-29 02:08:00,22.1,19.6,30.07,NNE,30,4.0,4.0,90,0.00,,,0.00,Wunderground v.1.15,2013-01-29 07:08:00,
2013-01-29 02:13:00,22.0,19.5,30.08,NE,36,4.0,4.0,90,0.00,,,0.00,Wunderground v.1.15,2013-01-29 07:13:00,
2013-01-29 02:23:00,22.0,19.5,30.07,NE,34,4.0,4.0,90,0.00,,,0.00,Wunderground v.1.15,2013-01-29 07:23:00,
2013-01-29 02:28:00,22.0,19.5,30.07,NNE,32,3.0,3.0,90,0.00,,,0.00,Wunderground v.1.15,2013-01-29 07:28:00,
2013-01-29 02:38:00,21.9,19.4,30.07,NNE,25,2.0,2.0,90,0.00,,,0.00,Wunderground v.1.15,2013-01-29 07:38:00,
2013-01-29 02:43:00,22.0,19.5,30.07,NNE,32,2.0,2.0,90,0.00,,,0.00,Wunderground v.1.15,2013-01-29 07:43:00,
2013-01-29 02:53:00,20.6,18.6,30.07,NW,315,1.0,2.0,92,0.00,,,0.00,Wunderground v.1.15,2013-01-29 07:53:00,
2013-01-29 02:58:00,20.4,18.4,30.07,NW,314,1.0,1.0,92,0.00,,,0.00,Wunderground v.1.15,2013-01-29 07:58:00,
2013-01-29 03:03:00,20.3,18.3,30.07,NW,305,1.0,2.0,92,0.00,,,0.00,Wunderground v.1.15,2013-01-29 08:03:00,
2013-01-29 03:13:00,20.0,18.1,30.07,NW,304,1.0,1.0,92,0.00,,,0.00,Wunderground v.1.15,2013-01-29 08:13:00,
2013-01-29 03:18:00,19.8,18.1,30.07,WNW,286,2.0,2.0,93,0.00,,,0.00,Wunderground v.1.15,2013-01-29 08:18:00,
2013-01-29 03:28:00,19.8,18.1,30.06,WNW,285,1.0,1.0,93,0.00,,,0.00,Wunderground v.1.15,2013-01-29 08:28:00,
2013-01-29 03:38:00,20.8,19.1,30.06,WNW,286,3.0,4.0,93,0.00,,,0.00,Wunderground v.1.15,2013-01-29 08:38:00,
2013-01-29 03:43:00,20.7,19.0,30.07,WNW,286,4.0,5.0,93,0.00,,,0.00,Wunderground v.1.15,2013-01-29 08:43:00,
2013-01-29 03:48:00,20.7,19.0,30.07,WNW,286,4.0,4.0,93,0.00,,,0.00,Wunderground v.1.15,2013-01-29 08:48:00,
2013-01-29 03:58:00,20.8,19.1,30.07,WNW,286,3.0,4.0,93,0.00,,,0.00,Wunderground v.1.15,2013-01-29 08:58:00,
2013-01-29 04:08:00,19.9,18.2,30.07,NW,312,3.0,3.0,93,0.00,,,0.00,Wunderground v.1.15,2013-01-29 09:08:00,
2013-01-29 04:13:00,20.1,18.4,30.08,NW,310,2.0,3.0,93,0.00,,,0.00,Wunderground v.1.15,2013-01-29 09:13:00,
2013-01-29 04:23:00,19.9,18.2,30.08,WNW,290,3.0,5.0,93,0.00,,,0.00,Wunderground v.1.15,2013-01-29 09:23:00,
2013-01-29 04:28:00,19.7,17.8,30.08,NW,310,4.0,7.0,92,0.00,,,0.00,Wunderground v.1.15,2013-01-29 09:28:00,
2013-01-29 04:33:00,19.6,17.9,30.08,NW,311,4.0,7.0,93,0.00,,,0.00,Wunderground v.1.15,2013-01-29 09:33:00,
2013-01-29 04:43:00,19.3,17.6,30.08,WNW,301,4.0,5.0,93,0.00,,,0.00,Wunderground v.1.15,2013-01-29 09:43:00,
2013-01-29 04:53:00,18.9,17.2,30.08,West,279,3.0,4.0,93,0.00,,,0.00,Wunderground v.1.15,2013-01-29 09:53:00,
2013-01-29 04:58:00,18.8,17.1,30.08,WNW,302,3.0,4.0,93,0.00,,,0.00,Wunderground v.1.15,2013-01-29 09:58:00,
2013-01-29 05:03:00,18.7,17.0,30.08,NW,304,3.0,4.0,93,0.00,,,0.00,Wunderground v.1.15,2013-01-29 10:03:00,
2013-01-29 05:13:00,18.4,16.7,30.08,NW,309,3.0,3.0,93,0.00,,,0.00,Wunderground v.1.15,2013-01-29 10:13:00,
2013-01-29 05:18:00,18.4,16.7,30.09,WNW,301,3.0,3.0,93,0.00,,,0.00,Wunderground v.1.15,2013-01-29 10:18:00,
2013-01-29 05:28:00,18.3,16.6,30.08,WNW,299,3.0,4.0,93,0.00,,,0.00,Wunderground v.1.15,2013-01-29 10:28:00,
2013-01-29 05:38:00,18.0,16.3,30.09,WNW,301,4.0,4.0,93,0.00,,,0.00,Wunderground v.1.15,2013-01-29 10:38:00,
2013-01-29 05:48:00,17.8,16.1,30.10,WNW,299,3.0,3.0,93,0.00,,,0.00,Wunderground v.1.15,2013-01-29 10:48:00,
2013-01-29 05:58:00,17.5,15.8,30.10,WNW,296,4.0,5.0,93,0.00,,,0.00,Wunderground v.1.15,2013-01-29 10:58:00,
2013-01-29 06:08:00,17.8,16.1,30.10,NW,313,4.0,4.0,93,0.00,,,0.00,Wunderground v.1.15,2013-01-29 11:08:00,
2013-01-29 06:13:00,18.0,16.3,30.10,NW,318,3.0,4.0,93,0.00,,,0.00,Wunderground v.1.15,2013-01-29 11:13:00,
2013-01-29 06:18:00,18.1,16.4,30.10,West,278,2.0,4.0,93,0.00,,,0.00,Wunderground v.1.15,2013-01-29 11:18:00,
2013-01-29 06:23:00,18.0,16.3,30.11,WNW,294,3.0,4.0,93,0.00,,,0.00,Wunderground v.1.15,2013-01-29 11:23:00,
2013-01-29 06:28:00,17.8,15.9,30.11,WNW,292,3.0,4.0,92,0.00,,,0.00,Wunderground v.1.15,2013-01-29 11:28:00,
2013-01-29 06:33:00,17.7,15.8,30.11,WNW,296,4.0,4.0,92,0.00,,,0.00,Wunderground v.1.15,2013-01-29 11:33:00,
2013-01-29 06:43:00,17.5,15.8,30.11,WNW,296,3.0,4.0,93,0.00,,,0.00,Wunderground v.1.15,2013-01-29 11:43:00,
2013-01-29 06:53:00,17.7,16.0,30.11,WNW,290,4.0,4.0,93,0.00,,,0.00,Wunderground v.1.15,2013-01-29 11:53:00,
2013-01-29 06:58:00,17.8,16.1,30.11,West,272,3.0,3.0,93,0.00,,,0.00,Wunderground v.1.15,2013-01-29 11:58:00,
2013-01-29 07:03:00,18.0,16.3,30.11,NW,307,2.0,3.0,93,0.00,,,0.00,Wunderground v.1.15,2013-01-29 12:03:00,
2013-01-29 07:13:00,18.2,16.3,30.11,West,281,0.0,1.0,92,0.00,,,0.00,Wunderground v.1.15,2013-01-29 12:13:00,
2013-01-29 07:23:00,18.3,16.4,30.12,WSW,239,0.0,0.0,92,0.00,,,0.00,Wunderground v.1.15,2013-01-29 12:23:00,
2013-01-29 07:28:00,18.5,16.8,30.11,WSW,238,0.0,0.0,93,0.00,,,0.00,Wunderground v.1.15,2013-01-29 12:28:00,
2013-01-29 07:33:00,18.7,17.0,30.11,SSW,211,0.0,0.0,93,0.00,,,0.00,Wunderground v.1.15,2013-01-29 12:33:00,
2013-01-29 07:38:00,18.8,16.9,30.11,NNE,13,0.0,0.0,92,0.00,,,0.00,Wunderground v.1.15,2013-01-29 12:38:00,
2013-01-29 07:43:00,18.8,16.9,30.12,NW,318,0.0,0.0,92,0.00,,,0.00,Wunderground v.1.15,2013-01-29 12:43:00,
2013-01-29 07:53:00,18.8,16.9,30.12,NNW,334,0.0,0.0,92,0.00,,,0.00,Wunderground v.1.15,2013-01-29 12:53:00,
2013-01-29 07:58:00,19.1,17.2,30.12,NNE,19,0.0,0.0,92,0.00,,,0.00,Wunderground v.1.15,2013-01-29 12:58:00,
2013-01-29 08:08:00,20.0,17.8,30.14,NNW,328,0.0,0.0,91,0.00,,,0.00,Wunderground v.1.15,2013-01-29 13:08:00,
2013-01-29 08:13:00,20.2,17.7,30.14,WNW,292,0.0,0.0,90,0.00,,,0.00,Wunderground v.1.15,2013-01-29 13:13:00,
2013-01-29 08:23:00,20.4,17.7,30.15,WNW,285,2.0,5.0,89,0.00,,,0.00,Wunderground v.1.15,2013-01-29 13:23:00,
2013-01-29 08:28:00,20.4,17.7,30.14,WNW,284,4.0,4.0,89,0.00,,,0.00,Wunderground v.1.15,2013-01-29 13:28:00,
2013-01-29 08:33:00,20.6,17.9,30.13,WNW,300,4.0,4.0,89,0.00,,,0.00,Wunderground v.1.15,2013-01-29 13:33:00,
2013-01-29 08:43:00,21.2,18.2,30.14,NW,321,3.0,5.0,88,0.00,,,0.00,Wunderground v.1.15,2013-01-29 13:43:00,
2013-01-29 08:53:00,22.2,19.2,30.15,North,350,2.0,3.0,88,0.00,,,0.00,Wunderground v.1.15,2013-01-29 13:53:00,
2013-01-29 08:58:00,22.7,19.4,30.15,WNW,294,1.0,4.0,87,0.00,,,0.00,Wunderground v.1.15,2013-01-29 13:58:00,
2013-01-29 09:03:00,22.7,19.1,30.16,WNW,300,2.0,4.0,86,0.00,,,0.00,Wunderground v.1.15,2013-01-29 14:03:00,
2013-01-29 09:13:00,23.3,20.0,30.15,WNW,300,2.0,3.0,87,0.00,,,0.00,Wunderground v.1.15,2013-01-29 14:13:00,
2013-01-29 09:18:00,23.7,20.1,30.15,WNW,292,2.0,2.0,86,0.00,,,0.00,Wunderground v.1.15,2013-01-29 14:18:00,
2013-01-29 09:28:00,24.0,20.1,30.16,West,276,1.0,1.0,85,0.00,,,0.00,Wunderground v.1.15,2013-01-29 14:28:00,
2013-01-29 09:38:00,24.6,20.7,30.16,WNW,287,1.0,4.0,85,0.00,,,0.00,Wunderground v.1.15,2013-01-29 14:38:00,
2013-01-29 09:43:00,24.9,21.0,30.17,WNW,285,2.0,4.0,85,0.00,,,0.00,Wunderground v.1.15,2013-01-29 14:43:00,
2013-01-29 09:48:00,25.2,21.6,30.17,NNW,328,2.0,2.0,86,0.00,,,0.00,Wunderground v.1.15,2013-01-29 14:48:00,
2013-01-29 09:53:00,25.6,21.7,30.17,WNW,302,1.0,2.0,85,0.00,,,0.00,Wunderground v.1.15,2013-01-29 14:53:00,
2013-01-29 10:03:00,26.4,22.2,30.17,WNW,283,0.0,2.0,84,0.00,,,0.00,Wunderground v.1.15,2013-01-29 15:03:00,
2013-01-29 10:13:00,26.9,22.7,30.18,WNW,284,2.0,2.0,84,0.00,,,0.00,Wunderground v.1.15,2013-01-29 15:13:00,
2013-01-29 10:23:00,27.4,23.2,30.18,NW,311,2.0,3.0,84,0.00,,,0.00,Wunderground v.1.15,2013-01-29 15:23:00,
2013-01-29 10:28:00,27.5,23.0,30.18,WNW,288,2.0,2.0,83,0.00,,,0.00,Wunderground v.1.15,2013-01-29 15:28:00,
2013-01-29 10:33:00,27.7,23.2,30.18,West,269,2.0,2.0,83,0.00,,,0.00,Wunderground v.1.15,2013-01-29 15:33:00,
2013-01-29 10:43:00,28.1,23.0,30.18,NW,306,3.0,6.0,81,0.00,,,0.00,Wunderground v.1.15,2013-01-29 15:43:00,
2013-01-29 10:53:00,28.5,23.1,30.18,NW,309,4.0,6.0,80,0.00,,,0.00,Wunderground v.1.15,2013-01-29 15:53:00,
2013-01-29 11:03:00,28.6,23.5,30.18,WNW,303,5.0,5.0,81,0.00,,,0.00,Wunderground v.1.15,2013-01-29 16:03:00,
2013-01-29 11:08:00,28.8,24.0,30.18,NW,307,5.0,6.0,82,0.00,,,0.00,Wunderground v.1.15,2013-01-29 16:08:00,
2013-01-29 11:13:00,28.9,24.1,30.18,NW,323,6.0,7.0,82,0.00,,,0.00,Wunderground v.1.15,2013-01-29 16:13:00,
2013-01-29 11:18:00,29.1,24.3,30.18,WNW,287,6.0,6.0,82,0.00,,,0.00,Wunderground v.1.15,2013-01-29 16:18:00,
2013-01-29 11:23:00,29.4,24.6,30.19,WNW,301,4.0,6.0,82,0.00,,,0.00,Wunderground v.1.15,2013-01-29 16:23:00,
2013-01-29 11:28:00,29.6,24.8,30.18,NW,325,2.0,2.0,82,0.00,,,0.00,Wunderground v.1.15,2013-01-29 16:28:00,
2013-01-29 11:38:00,30.0,25.2,30.18,NE,34,2.0,2.0,82,0.00,,,0.00,Wunderground v.1.15,2013-01-29 16:38:00,
2013-01-29 11:43:00,30.7,26.1,30.17,West,280,1.0,2.0,83,0.00,,,0.00,Wunderground v.1.15,2013-01-29 16:43:00,
2013-01-29 11:53:00,31.0,25.6,30.17,NW,317,0.0,0.0,80,0.00,,,0.00,Wunderground v.1.15,2013-01-29 16:53:00,
2013-01-29 11:58:00,30.8,25.4,30.18,NNW,330,2.0,4.0,80,0.00,,,0.00,Wunderground v.1.15,2013-01-29 16:58:00,
2013-01-29 12:03:00,30.9,25.5,30.18,West,275,3.0,4.0,80,0.00,,,0.00,Wunderground v.1.15,2013-01-29 17:03:00,
2013-01-29 12:08:00,31.1,26.0,30.17,NNW,332,3.0,4.0,81,0.00,,,0.00,Wunderground v.1.15,2013-01-29 17:08:00,
2013-01-29 12:13:00,31.3,26.1,30.17,NW,304,3.0,5.0,81,0.00,,,0.00,Wunderground v.1.15,2013-01-29 17:13:00,
2013-01-29 12:18:00,31.2,25.7,30.17,NW,317,4.0,4.0,80,0.00,,,0.00,Wunderground v.1.15,2013-01-29 17:18:00,
2013-01-29 12:28:00,31.5,26.0,30.16,NNW,336,3.0,3.0,80,0.00,,,0.00,Wunderground v.1.15,2013-01-29 17:28:00,
2013-01-29 12:38:00,31.8,26.3,30.16,NW,325,3.0,3.0,80,0.00,,,0.00,Wunderground v.1.15,2013-01-29 17:38:00,
2013-01-29 12:43:00,31.9,26.4,30.15,North,350,3.0,4.0,80,0.00,,,0.00,Wunderground v.1.15,2013-01-29 17:43:00,
2013-01-29 12:53:00,32.1,26.0,30.15,WNW,288,2.0,2.0,78,0.00,,,0.00,Wunderground v.1.15,2013-01-29 17:53:00,
2013-01-29 12:58:00,32.2,26.4,30.15,West,273,2.0,2.0,79,0.00,,,0.00,Wunderground v.1.15,2013-01-29 17:58:00,
2013-01-29 13:03:00,32.7,26.6,30.15,NE,55,1.0,2.0,78,0.00,,,0.00,Wunderground v.1.15,2013-01-29 18:03:00,
2013-01-29 13:13:00,32.7,26.6,30.14,NNE,21,2.0,2.0,78,0.00,,,0.01,Wunderground v.1.15,2013-01-29 18:13:00,
2013-01-29 13:18:00,32.8,26.7,30.15,NNW,346,2.0,2.0,78,0.00,,,0.01,Wunderground v.1.15,2013-01-29 18:18:00,
2013-01-29 13:28:00,32.8,26.7,30.15,NW,322,2.0,4.0,78,0.00,,,0.01,Wunderground v.1.15,2013-01-29 18:28:00,
2013-01-29 13:38:00,33.8,28.0,30.15,NW,304,2.0,4.0,79,0.00,,,0.01,Wunderground v.1.15,2013-01-29 18:38:00,
2013-01-29 13:43:00,33.8,28.0,30.15,NW,304,3.0,4.0,79,0.00,,,0.01,Wunderground v.1.15,2013-01-29 18:43:00,
2013-01-29 13:48:00,34.1,28.6,30.15,NW,304,2.0,7.0,80,0.00,,,0.01,Wunderground v.1.15,2013-01-29 18:48:00,
2013-01-29 13:58:00,33.7,27.6,30.16,WNW,296,5.0,5.0,78,0.00,,,0.01,Wunderground v.1.15,2013-01-29 18:58:00,
2013-01-29 14:08:00,33.4,27.6,30.17,WSW,254,4.0,4.0,79,0.00,,,0.01,Wunderground v.1.15,2013-01-29 19:08:00,
2013-01-29 14:13:00,33.6,27.8,30.17,West,267,3.0,4.0,79,0.00,,,0.01,Wunderground v.1.15,2013-01-29 19:13:00,
2013-01-29 14:23:00,34.0,28.2,30.18,WNW,283,2.0,5.0,79,0.00,,,0.02,Wunderground v.1.15,2013-01-29 19:23:00,
2013-01-29 14:28:00,33.9,28.1,30.18,WSW,253,3.0,3.0,79,0.00,,,0.02,Wunderground v.1.15,2013-01-29 19:28:00,
2013-01-29 14:33:00,34.0,28.2,30.18,West,279,3.0,3.0,79,0.00,,,0.02,Wunderground v.1.15,2013-01-29 19:33:00,
2013-01-29 14:43:00,33.7,28.5,30.18,WSW,254,3.0,3.0,81,0.00,,,0.02,Wunderground v.1.15,2013-01-29 19:43:00,
2013-01-29 14:48:00,33.7,28.2,30.18,WSW,242,2.0,2.0,80,0.00,,,0.02,Wunderground v.1.15,2013-01-29 19:48:00,
2013-01-29 14:53:00,33.6,28.4,30.18,West,268,1.0,2.0,81,0.00,,,0.02,Wunderground v.1.15,2013-01-29 19:53:00,
2013-01-29 14:58:00,33.7,28.5,30.17,WNW,300,1.0,1.0,81,0.00,,,0.02,Wunderground v.1.15,2013-01-29 19:58:00,
2013-01-29 15:03:00,33.6,28.1,30.16,SE,133,0.0,1.0,80,0.00,,,0.02,Wunderground v.1.15,2013-01-29 20:03:00,
2013-01-29 15:13:00,33.5,28.3,30.16,SE,133,1.0,2.0,81,0.00,,,0.02,Wunderground v.1.15,2013-01-29 20:13:00,
2013-01-29 15:18:00,33.4,28.2,30.16,SE,144,0.0,0.0,81,0.00,,,0.02,Wunderground v.1.15,2013-01-29 20:18:00,
2013-01-29 15:23:00,33.3,28.1,30.16,SE,140,0.0,1.0,81,0.00,,,0.02,Wunderground v.1.15,2013-01-29 20:23:00,
2013-01-29 15:28:00,33.3,28.1,30.16,SE,145,1.0,2.0,81,0.00,,,0.02,Wunderground v.1.15,2013-01-29 20:28:00,
2013-01-29 15:38:00,33.2,28.3,30.15,SE,144,1.0,2.0,82,0.00,,,0.02,Wunderground v.1.15,2013-01-29 20:38:00,
2013-01-29 15:48:00,32.9,28.0,30.16,SSE,150,3.0,3.0,82,0.00,,,0.02,Wunderground v.1.15,2013-01-29 20:48:00,
2013-01-29 15:58:00,32.6,28.3,30.15,SE,145,2.0,4.0,84,0.00,,,0.02,Wunderground v.1.15,2013-01-29 20:58:00,
2013-01-29 16:08:00,32.4,28.4,30.15,SE,138,4.0,4.0,85,0.00,,,0.02,Wunderground v.1.15,2013-01-29 21:08:00,
2013-01-29 16:13:00,32.2,28.2,30.15,SE,145,3.0,4.0,85,0.00,,,0.02,Wunderground v.1.15,2013-01-29 21:13:00,
2013-01-29 16:23:00,31.9,28.2,30.14,ESE,115,2.0,2.0,86,0.00,,,0.02,Wunderground v.1.15,2013-01-29 21:23:00,
2013-01-29 16:28:00,31.8,28.4,30.14,SSE,150,2.0,4.0,87,0.00,,,0.02,Wunderground v.1.15,2013-01-29 21:28:00,
2013-01-29 16:33:00,31.8,28.4,30.15,SE,130,2.0,4.0,87,0.00,,,0.02,Wunderground v.1.15,2013-01-29 21:33:00,
2013-01-29 16:43:00,31.6,28.2,30.15,ESE,123,1.0,2.0,87,0.00,,,0.02,Wunderground v.1.15,2013-01-29 21:43:00,
2013-01-29 16:48:00,31.5,28.1,30.15,SSE,148,1.0,1.0,87,0.00,,,0.02,Wunderground v.1.15,2013-01-29 21:48:00,
2013-01-29 16:53:00,31.5,28.1,30.15,SE,140,1.0,1.0,87,0.00,,,0.02,Wunderground v.1.15,2013-01-29 21:53:00,
2013-01-29 16:58:00,31.4,28.3,30.15,SW,217,0.0,0.0,88,0.00,,,0.02,Wunderground v.1.15,2013-01-29 21:58:00,
2013-01-29 17:03:00,31.4,28.3,30.16,South,175,0.0,0.0,88,0.00,,,0.02,Wunderground v.1.15,2013-01-29 22:03:00,
2013-01-29 17:13:00,31.2,28.1,30.17,WSW,245,0.0,0.0,88,0.00,,,0.02,Wunderground v.1.15,2013-01-29 22:13:00,
2013-01-29 17:23:00,30.9,28.0,30.17,WSW,246,1.0,2.0,89,0.00,,,0.02,Wunderground v.1.15,2013-01-29 22:23:00,
2013-01-29 17:28:00,30.9,28.0,30.17,SW,217,1.0,1.0,89,0.00,,,0.02,Wunderground v.1.15,2013-01-29 22:28:00,
2013-01-29 17:33:00,30.8,27.9,30.18,WSW,252,1.0,1.0,89,0.00,,,0.02,Wunderground v.1.15,2013-01-29 22:33:00,
2013-01-29 17:38:00,30.6,27.7,30.18,WSW,250,0.0,0.0,89,0.00,,,0.02,Wunderground v.1.15,2013-01-29 22:38:00,
2013-01-29 17:43:00,30.5,27.9,30.18,WSW,250,0.0,0.0,90,0.00,,,0.02,Wunderground v.1.15,2013-01-29 22:43:00,
2013-01-29 17:48:00,30.4,27.8,30.18,WSW,245,1.0,1.0,90,0.00,,,0.02,Wunderground v.1.15,2013-01-29 22:48:00,
2013-01-29 17:53:00,30.4,27.8,30.19,SW,233,1.0,1.0,90,0.00,,,0.02,Wunderground v.1.15,2013-01-29 22:53:00,
2013-01-29 17:58:00,30.3,27.7,30.18,SW,214,1.0,1.0,90,0.00,,,0.02,Wunderground v.1.15,2013-01-29 22:58:00,
2013-01-29 18:08:00,30.1,27.5,30.18,SW,215,0.0,0.0,90,0.00,,,0.02,Wunderground v.1.15,2013-01-29 23:08:00,
2013-01-29 18:13:00,30.0,27.4,30.18,SE,138,0.0,0.0,90,0.00,,,0.02,Wunderground v.1.15,2013-01-29 23:13:00,
2013-01-29 18:23:00,30.1,27.8,30.18,South,173,0.0,0.0,91,0.00,,,0.02,Wunderground v.1.15,2013-01-29 23:23:00,
2013-01-29 18:28:00,30.0,27.4,30.19,SSW,200,0.0,0.0,90,0.00,,,0.02,Wunderground v.1.15,2013-01-29 23:28:00,
2013-01-29 18:33:00,29.9,27.3,30.20,West,262,0.0,0.0,90,0.00,,,0.02,Wunderground v.1.15,2013-01-29 23:33:00,
2013-01-29 18:43:00,29.7,27.4,30.21,West,263,0.0,0.0,91,0.00,,,0.02,Wunderground v.1.15,2013-01-29 23:43:00,
2013-01-29 18:53:00,29.8,27.5,30.21,West,263,0.0,0.0,91,0.00,,,0.02,Wunderground v.1.15,2013-01-29 23:53:00,
2013-01-29 19:03:00,30.0,27.7,30.19,SE,141,0.0,0.0,91,0.00,,,0.02,Wunderground v.1.15,2013-01-30 00:03:00,
2013-01-29 19:13:00,30.2,27.9,30.19,SSE,150,0.0,0.0,91,0.00,,,0.02,Wunderground v.1.15,2013-01-30 00:13:00,
2013-01-29 19:23:00,30.2,27.9,30.19,SSE,150,0.0,0.0,91,0.00,,,0.02,Wunderground v.1.15,2013-01-30 00:23:00,
2013-01-29 19:34:00,30.1,28.1,30.20,SSE,150,0.0,0.0,92,0.00,,,0.02,Wunderground v.1.15,2013-01-30 00:34:00,
2013-01-29 19:44:00,30.2,28.2,30.20,SSE,150,0.0,0.0,92,0.00,,,0.02,Wunderground v.1.15,2013-01-30 00:44:00,
2013-01-29 19:48:00,30.2,28.2,30.20,SSE,150,0.0,0.0,92,0.00,,,0.02,Wunderground v.1.15,2013-01-30 00:48:00,
2013-01-29 19:53:00,30.2,28.2,30.19,SSE,150,0.0,0.0,92,0.00,,,0.02,Wunderground v.1.15,2013-01-30 00:53:00,
2013-01-29 20:03:00,30.1,28.1,30.20,SSE,150,0.0,0.0,92,0.00,,,0.02,Wunderground v.1.15,2013-01-30 01:03:00,
2013-01-29 20:08:00,30.1,28.1,30.20,SSE,150,0.0,0.0,92,0.00,,,0.02,Wunderground v.1.15,2013-01-30 01:08:00,
2013-01-29 20:13:00,30.1,28.1,30.20,SSE,150,0.0,0.0,92,0.00,,,0.02,Wunderground v.1.15,2013-01-30 01:13:00,
2013-01-29 20:23:00,30.1,28.1,30.20,West,265,0.0,0.0,92,0.00,,,0.02,Wunderground v.1.15,2013-01-30 01:23:00,
2013-01-29 20:28:00,30.1,28.1,30.19,West,265,0.0,0.0,92,0.00,,,0.02,Wunderground v.1.15,2013-01-30 01:28:00,
2013-01-29 20:38:00,30.1,28.1,30.19,West,265,0.0,0.0,92,0.00,,,0.02,Wunderground v.1.15,2013-01-30 01:38:00,
2013-01-29 20:43:00,30.1,28.1,30.19,North,360,0.0,0.0,92,0.00,,,0.02,Wunderground v.1.15,2013-01-30 01:43:00,
2013-01-29 20:53:00,30.2,28.4,30.18,NNE,24,0.0,0.0,93,0.00,,,0.02,Wunderground v.1.15,2013-01-30 01:53:00,
2013-01-29 20:58:00,30.3,28.5,30.18,NE,36,0.0,0.0,93,0.00,,,0.02,Wunderground v.1.15,2013-01-30 01:58:00,
2013-01-29 21:03:00,30.3,28.3,30.17,North,5,0.0,0.0,92,0.00,,,0.02,Wunderground v.1.15,2013-01-30 02:03:00,
2013-01-29 21:08:00,30.4,28.4,30.17,NNE,19,0.0,0.0,92,0.00,,,0.02,Wunderground v.1.15,2013-01-30 02:08:00,
2013-01-29 21:14:00,30.5,28.5,30.17,NNE,17,1.0,1.0,92,0.00,,,0.02,Wunderground v.1.15,2013-01-30 02:14:00,
2013-01-29 21:23:00,30.6,28.6,30.17,NE,42,0.0,0.0,92,0.00,,,0.02,Wunderground v.1.15,2013-01-30 02:23:00,
2013-01-29 21:28:00,31.7,29.6,30.17,WNW,290,0.0,2.0,92,0.00,,,0.02,Wunderground v.1.15,2013-01-30 02:28:00,
2013-01-29 21:38:00,31.8,29.7,30.18,WNW,290,2.0,4.0,92,0.00,,,0.02,Wunderground v.1.15,2013-01-30 02:38:00,
2013-01-29 21:43:00,31.8,29.7,30.18,WNW,290,3.0,4.0,92,0.00,,,0.02,Wunderground v.1.15,2013-01-30 02:43:00,
2013-01-29 21:48:00,31.9,29.8,30.17,WNW,290,4.0,4.0,92,0.00,,,0.02,Wunderground v.1.15,2013-01-30 02:48:00,
2013-01-29 21:58:00,32.0,29.9,30.17,WNW,290,3.0,4.0,92,0.00,,,0.02,Wunderground v.1.15,2013-01-30 02:58:00,
2013-01-29 22:08:00,32.3,30.2,30.18,WNW,290,3.0,3.0,92,0.00,,,0.02,Wunderground v.1.15,2013-01-30 03:08:00,
2013-01-29 22:13:00,32.4,30.3,30.17,WNW,290,2.0,3.0,92,0.00,,,0.02,Wunderground v.1.15,2013-01-30 03:13:00,
2013-01-29 22:23:00,32.5,30.4,30.17,WNW,290,2.0,3.0,92,0.00,,,0.02,Wunderground v.1.15,2013-01-30 03:23:00,
2013-01-29 22:28:00,32.5,30.4,30.17,WNW,290,2.0,2.0,92,0.00,,,0.02,Wunderground v.1.15,2013-01-30 03:28:00,
2013-01-29 22:33:00,32.7,30.6,30.17,WNW,290,1.0,2.0,92,0.00,,,0.02,Wunderground v.1.15,2013-01-30 03:33:00,
2013-01-29 22:38:00,32.6,30.3,30.17,WNW,290,0.0,0.0,91,0.00,,,0.02,Wunderground v.1.15,2013-01-30 03:38:00,
2013-01-29 22:43:00,32.6,30.5,30.17,WNW,290,0.0,0.0,92,0.00,,,0.02,Wunderground v.1.15,2013-01-30 03:43:00,
2013-01-29 22:53:00,32.8,30.7,30.16,WNW,290,0.0,4.0,92,0.00,,,0.02,Wunderground v.1.15,2013-01-30 03:53:00,
2013-01-29 22:58:00,32.9,30.8,30.16,WNW,290,1.0,2.0,92,0.00,,,0.02,Wunderground v.1.15,2013-01-30 03:58:00,
2013-01-29 23:03:00,33.0,30.9,30.16,WNW,290,1.0,2.0,92,0.00,,,0.02,Wunderground v.1.15,2013-01-30 04:03:00,
2013-01-29 23:13:00,33.3,31.2,30.16,WNW,290,0.0,2.0,92,0.00,,,0.02,Wunderground v.1.15,2013-01-30 04:13:00,
2013-01-29 23:23:00,33.6,31.8,30.15,WNW,290,0.0,0.0,93,0.00,,,0.02,Wunderground v.1.15,2013-01-30 04:23:00,
2013-01-29 23:28:00,33.8,32.0,30.15,WNW,290,0.0,0.0,93,0.00,,,0.02,Wunderground v.1.15,2013-01-30 04:28:00,
2013-01-29 23:38:00,35.5,33.9,30.15,West,267,4.0,6.0,94,0.00,,,0.02,Wunderground v.1.15,2013-01-30 04:38:00,
2013-01-29 23:49:00,37.4,35.6,30.14,SSE,150,7.0,7.0,93,0.00,,,0.02,Wunderground v.1.15,2013-01-30 04:49:00,
2013-01-29 23:59:00,38.1,35.7,30.15,SSE,165,7.0,7.0,91,0.00,,,0.00,Wunderground v.1.15,2013-01-30 04:59:00,